createdAt,value
2019-04-23T00:02:29.774Z,9.43
2019-04-23T00:04:59.554Z,9.50
2019-04-23T00:10:12.363Z,9.47
2019-04-23T00:12:45.212Z,8.27
2019-04-23T00:15:09.249Z,7.20
2019-04-23T00:20:09.577Z,9.57
2019-04-23T00:23:00.220Z,10.17
2019-04-23T00:26:25.602Z,12.57
2019-04-23T00:31:13.666Z,16.57
2019-04-23T00:33:34.534Z,8.33
2019-04-23T00:36:10.651Z,8.40
2019-04-23T00:38:45.490Z,9.27
2019-04-23T00:41:13.917Z,9.30
2019-04-23T00:43:42.887Z,10.53
2019-04-23T00:46:15.519Z,6.97
2019-04-23T00:51:13.843Z,7.70
2019-04-23T00:53:46.704Z,8.80
2019-04-23T00:56:32.424Z,8.80
2019-04-23T00:58:48.207Z,7.17
2019-04-23T01:01:19.229Z,9.30
2019-04-23T01:03:52.998Z,11.37
2019-04-23T01:06:24.138Z,6.27
2019-04-23T01:08:53.691Z,7.50
2019-04-23T01:14:08.160Z,7.20
2019-04-23T01:16:20.942Z,9.60
2019-04-23T01:19:24.841Z,7.03
2019-04-23T01:21:41.261Z,8.00
2019-04-23T01:24:40.815Z,9.13
2019-04-23T01:27:46.017Z,7.03
2019-04-23T01:30:10.063Z,7.90
2019-04-23T01:32:42.395Z,7.73
2019-04-23T01:37:56.260Z,7.03
2019-04-23T01:45:20.383Z,12.33
2019-04-23T01:50:20.409Z,9.27
2019-04-23T01:52:55.739Z,7.77
2019-04-23T01:55:21.170Z,7.00
2019-04-23T01:57:58.527Z,7.33
2019-04-23T02:00:24.159Z,7.67
2019-04-23T02:02:57.575Z,7.90
2019-04-23T02:10:49.385Z,8.17
2019-04-23T02:13:01.814Z,6.13
2019-04-23T02:15:31.987Z,7.70
2019-04-23T02:18:06.567Z,9.93
2019-04-23T02:20:37.412Z,6.77
2019-04-23T02:23:24.923Z,11.23
2019-04-23T02:28:38.856Z,8.43
2019-04-23T02:31:12.182Z,10.67
2019-04-23T02:33:38.411Z,7.53
2019-04-23T02:41:13.114Z,9.90
2019-04-23T02:43:20.190Z,9.20
2019-04-23T02:46:05.514Z,13.33
2019-04-23T02:51:04.784Z,8.83
2019-04-23T02:53:44.654Z,8.37
2019-04-23T02:56:18.236Z,10.67
2019-04-23T02:58:43.984Z,9.43
2019-04-23T03:01:21.993Z,8.90
2019-04-23T03:08:49.299Z,9.07
2019-04-23T03:13:53.599Z,8.57
2019-04-23T03:19:04.988Z,12.03
2019-04-23T03:21:53.789Z,9.73
2019-04-23T03:24:36.357Z,9.60
2019-04-23T03:37:20.346Z,10.03
2019-04-23T03:39:50.444Z,17.23
2019-04-23T03:42:17.728Z,10.30
2019-04-23T03:44:49.209Z,7.37
2019-04-23T03:47:11.499Z,10.03
2019-04-23T03:49:41.229Z,9.87
2019-04-23T03:59:46.768Z,8.63
2019-04-23T04:04:39.061Z,9.47
2019-04-23T04:09:49.900Z,8.00
2019-04-23T04:12:25.468Z,8.87
2019-04-23T04:15:07.212Z,9.90
2019-04-23T04:17:20.131Z,13.53
2019-04-23T04:22:26.882Z,9.93
2019-04-23T04:24:48.964Z,10.00
2019-04-23T04:30:10.580Z,8.73
2019-04-23T04:32:46.883Z,9.07
2019-04-23T04:37:40.519Z,11.30
2019-04-23T04:41:05.606Z,8.60
2019-04-23T04:42:33.271Z,11.17
2019-04-23T04:55:03.215Z,12.97
2019-04-23T04:57:56.719Z,14.00
2019-04-23T05:00:13.327Z,10.13
2019-04-23T05:03:01.172Z,15.60
2019-04-23T05:05:33.025Z,13.37
2019-04-23T05:07:40.250Z,13.40
2019-04-23T05:10:21.638Z,12.23
2019-04-23T05:12:40.986Z,15.33
2019-04-23T05:15:23.502Z,13.17
2019-04-23T05:18:08.289Z,10.00
2019-04-23T05:20:37.229Z,11.13
2019-04-23T05:23:22.854Z,15.10
2019-04-23T05:25:33.110Z,12.83
2019-04-23T05:28:07.979Z,11.43
2019-04-23T05:30:39.481Z,10.67
2019-04-23T05:33:11.658Z,12.97
2019-04-23T05:36:02.142Z,10.67
2019-04-23T05:38:18.334Z,10.20
2019-04-23T05:40:45.241Z,9.23
2019-04-23T05:43:15.029Z,10.77
2019-04-23T05:45:40.203Z,10.17
2019-04-23T05:50:54.058Z,11.53
2019-04-23T05:55:47.619Z,12.37
2019-04-23T05:58:23.255Z,10.43
2019-04-23T06:00:59.626Z,10.13
2019-04-23T06:03:22.720Z,10.67
2019-04-23T06:05:56.532Z,9.83
2019-04-23T06:11:02.315Z,15.70
2019-04-23T06:15:59.671Z,9.97
2019-04-23T06:18:31.949Z,10.57
2019-04-23T06:21:05.595Z,13.33
2019-04-23T06:23:38.220Z,10.90
2019-04-23T06:26:19.867Z,10.87
2019-04-23T06:28:31.649Z,10.23
2019-04-23T06:31:09.640Z,10.00
2019-04-23T06:38:44.942Z,11.47
2019-04-23T06:44:01.980Z,14.93
2019-04-23T06:46:28.941Z,10.97
2019-04-23T06:48:57.052Z,14.27
2019-04-23T06:53:57.834Z,14.10
2019-04-23T06:56:39.045Z,10.10
2019-04-23T06:59:00.943Z,11.50
2019-04-23T07:01:27.714Z,9.77
2019-04-23T07:04:05.460Z,12.03
2019-04-23T07:11:38.675Z,12.13
2019-04-23T07:13:58.313Z,13.27
2019-04-23T07:19:09.614Z,11.63
2019-04-23T07:21:37.318Z,13.57
2019-04-23T07:24:08.518Z,12.53
2019-04-23T07:26:40.463Z,13.03
2019-04-23T07:34:15.662Z,14.27
2019-04-23T07:36:58.865Z,10.70
2019-04-23T07:39:43.098Z,11.03
2019-04-23T07:45:02.482Z,8.30
2019-04-23T07:48:06.548Z,9.80
2019-04-23T07:50:41.349Z,9.20
2019-04-23T07:53:06.324Z,9.33
2019-04-23T07:55:41.118Z,9.77
2019-04-23T07:58:06.477Z,12.63
2019-04-23T08:00:44.379Z,10.73
2019-04-23T08:03:10.912Z,8.83
2019-04-23T08:08:07.508Z,7.10
2019-04-23T08:10:56.861Z,7.83
2019-04-23T08:13:16.405Z,9.33
2019-04-23T08:15:42.946Z,9.70
2019-04-23T08:23:25.699Z,10.80
2019-04-23T08:26:19.390Z,8.73
2019-04-23T08:29:01.054Z,9.60
2019-04-23T08:31:15.152Z,9.73
2019-04-23T08:33:53.005Z,13.37
2019-04-23T08:36:20.098Z,7.90
2019-04-23T08:38:44.675Z,9.63
2019-04-23T08:43:57.340Z,7.20
2019-04-23T08:46:52.044Z,7.27
2019-04-23T08:49:22.237Z,7.33
2019-04-23T08:54:27.958Z,8.00
2019-04-23T08:56:48.574Z,6.53
2019-04-23T08:59:24.945Z,11.70
2019-04-23T09:01:59.418Z,9.37
2019-04-23T09:04:18.555Z,6.93
2019-04-23T09:06:53.072Z,7.37
2019-04-23T09:09:20.237Z,7.50
2019-04-23T09:11:56.412Z,6.33
2019-04-23T09:14:10.265Z,5.47
2019-04-23T09:16:58.400Z,8.17
2019-04-23T09:19:42.912Z,6.33
2019-04-23T09:22:04.131Z,6.97
2019-04-23T09:24:27.600Z,6.35
2019-04-23T09:26:58.739Z,4.25
2019-04-23T09:29:41.145Z,3.98
2019-04-23T09:34:58.691Z,5.67
2019-04-23T09:37:45.344Z,5.72
2019-04-23T09:41:03.128Z,4.53
2019-04-23T09:43:38.234Z,5.12
2019-04-23T09:51:29.922Z,4.90
2019-04-23T09:54:04.309Z,9.15
2019-04-23T09:56:35.861Z,7.35
2019-04-23T09:59:08.959Z,9.55
2019-04-23T10:01:41.340Z,7.53
2019-04-23T10:03:53.330Z,7.12
2019-04-23T10:06:18.216Z,7.33
2019-04-23T10:08:47.427Z,8.05
2019-04-23T10:11:13.817Z,7.28
2019-04-23T10:13:45.026Z,5.12
2019-04-23T10:16:17.220Z,7.42
2019-04-23T10:18:46.811Z,8.38
2019-04-23T10:21:17.453Z,7.58
2019-04-23T10:23:47.506Z,9.40
2019-04-23T10:26:16.963Z,6.03
2019-04-23T10:28:52.039Z,8.58
2019-04-23T10:31:22.875Z,6.78
2019-04-23T10:33:52.488Z,6.65
2019-04-23T10:36:25.203Z,6.22
2019-04-23T10:39:00.474Z,7.30
2019-04-23T10:41:25.683Z,14.47
2019-04-23T10:44:00.774Z,7.80
2019-04-23T10:47:02.741Z,7.15
2019-04-23T10:50:07.424Z,8.93
2019-04-23T10:52:33.742Z,10.60
2019-04-23T10:55:00.799Z,7.47
2019-04-23T10:57:44.090Z,11.67
2019-04-23T10:59:58.541Z,7.43
2019-04-23T11:02:39.077Z,9.53
2019-04-23T11:05:29.108Z,9.27
2019-04-23T11:07:42.038Z,9.53
2019-04-23T11:10:08.742Z,8.40
2019-04-23T11:12:48.913Z,7.87
2019-04-23T11:15:55.708Z,12.17
2019-04-23T11:18:10.603Z,10.03
2019-04-23T11:20:34.131Z,12.37
2019-04-23T11:23:08.969Z,12.03
2019-04-23T11:25:35.993Z,13.37
2019-04-23T11:28:13.550Z,10.23
2019-04-23T11:36:18.713Z,7.30
2019-04-23T11:38:44.106Z,11.30
2019-04-23T11:40:41.736Z,11.53
2019-04-23T11:43:20.510Z,6.77
2019-04-23T11:45:59.192Z,7.03
2019-04-23T11:51:39.468Z,9.17
2019-04-23T11:53:31.984Z,10.43
2019-04-23T11:55:53.354Z,10.20
2019-04-23T11:58:34.083Z,8.33
2019-04-23T12:01:23.076Z,7.50
2019-04-23T12:04:02.774Z,8.03
2019-04-23T12:06:46.003Z,10.53
2019-04-23T12:09:45.144Z,12.27
2019-04-23T12:14:48.087Z,9.20
2019-04-23T12:17:29.456Z,8.33
2019-04-23T12:22:22.273Z,13.07
2019-04-23T12:30:01.242Z,10.93
2019-04-23T12:37:40.677Z,10.67
2019-04-23T12:42:55.536Z,16.43
2019-04-23T12:47:58.439Z,10.23
2019-04-23T12:50:41.682Z,10.87
2019-04-23T12:55:22.367Z,11.17
2019-04-23T13:00:27.122Z,12.23
2019-04-23T13:02:48.574Z,12.60
2019-04-23T13:08:05.719Z,13.50
2019-04-23T13:10:30.154Z,11.57
2019-04-23T13:13:01.908Z,9.20
2019-04-23T13:15:30.846Z,12.43
2019-04-23T13:25:47.356Z,14.57
2019-04-23T13:38:27.250Z,10.13
2019-04-23T13:48:24.904Z,9.60
2019-04-23T13:50:59.687Z,10.57
2019-04-23T13:56:02.149Z,9.60
2019-04-23T14:01:13.988Z,11.83
2019-04-23T14:06:18.181Z,10.83
2019-04-23T14:11:21.568Z,10.53
2019-04-23T14:13:49.718Z,11.10
2019-04-23T14:21:20.361Z,13.60
2019-04-23T14:24:03.453Z,12.17
2019-04-23T14:28:44.841Z,12.00
2019-04-23T14:31:23.384Z,17.60
2019-04-23T14:34:00.185Z,14.33
2019-04-23T14:36:27.003Z,12.60
2019-04-23T14:39:05.716Z,13.43
2019-04-23T14:44:11.438Z,12.23
2019-04-23T14:49:16.496Z,15.63
2019-04-23T14:51:58.593Z,12.13
2019-04-23T14:54:24.913Z,11.83
2019-04-23T14:56:51.531Z,12.37
2019-04-23T14:59:10.710Z,10.03
2019-04-23T15:01:48.978Z,9.03
2019-04-23T15:04:19.156Z,11.50
2019-04-23T15:09:27.628Z,11.57
2019-04-23T15:11:53.113Z,18.03
2019-04-23T15:14:46.404Z,13.37
2019-04-23T15:17:01.618Z,11.20
2019-04-23T15:19:40.135Z,11.63
2019-04-23T15:22:07.792Z,14.80
2019-04-23T15:29:24.602Z,12.17
2019-04-23T15:32:14.979Z,16.13
2019-04-23T15:34:45.471Z,11.07
2019-04-23T15:37:26.246Z,11.20
2019-04-23T15:39:46.489Z,13.87
2019-04-23T15:42:23.089Z,14.30
2019-04-23T15:44:48.817Z,10.80
2019-04-23T15:47:20.221Z,16.93
2019-04-23T15:49:51.368Z,15.70
2019-04-23T15:52:27.321Z,14.97
2019-04-23T15:57:32.480Z,10.67
2019-04-23T16:01:54.314Z,13.80
2019-04-23T16:04:24.139Z,13.73
2019-04-23T16:06:54.003Z,11.90
2019-04-23T16:09:54.136Z,16.07
2019-04-23T16:12:22.263Z,14.93
2019-04-23T16:15:07.862Z,13.97
2019-04-23T16:17:28.963Z,19.07
2019-04-23T16:20:27.661Z,13.73
2019-04-23T16:22:39.667Z,19.87
2019-04-23T16:25:12.740Z,13.37
2019-04-23T16:27:50.404Z,17.40
2019-04-23T16:35:43.367Z,15.30
2019-04-23T16:38:18.512Z,16.50
2019-04-23T16:40:37.863Z,17.87
2019-04-23T16:43:08.626Z,15.50
2019-04-23T16:45:41.030Z,15.80
2019-04-23T16:48:37.565Z,13.83
2019-04-23T16:53:19.675Z,12.73
2019-04-23T16:56:05.522Z,14.17
2019-04-23T16:58:25.214Z,17.10
2019-04-23T17:05:55.040Z,14.07
2019-04-23T17:11:00.103Z,11.97
2019-04-23T17:13:21.114Z,14.60
2019-04-23T17:16:00.247Z,15.03
2019-04-23T17:18:25.945Z,12.07
2019-04-23T17:23:34.443Z,11.97
2019-04-23T17:25:59.211Z,14.13
2019-04-23T17:31:28.085Z,12.70
2019-04-23T17:33:43.475Z,13.63
2019-04-23T17:36:24.834Z,13.00
2019-04-23T17:39:02.788Z,13.60
2019-04-23T17:41:38.810Z,16.73
2019-04-23T17:44:18.310Z,18.93
2019-04-23T17:46:43.145Z,15.03
2019-04-23T17:51:31.195Z,13.63
2019-04-23T17:54:45.004Z,14.70
2019-04-23T17:59:12.043Z,11.97
2019-04-23T18:01:47.334Z,12.40
2019-04-23T18:04:36.266Z,13.10
2019-04-23T18:09:25.547Z,13.27
2019-04-23T18:11:52.277Z,13.70
2019-04-23T18:14:34.725Z,13.77
2019-04-23T18:19:17.528Z,12.47
2019-04-23T18:22:18.989Z,11.80
2019-04-23T18:25:05.755Z,11.00
2019-04-23T18:27:33.752Z,13.57
2019-04-23T18:30:15.662Z,12.83
2019-04-23T18:35:42.621Z,12.47
2019-04-23T18:38:07.362Z,14.83
2019-04-23T18:40:41.973Z,11.80
2019-04-23T18:45:45.319Z,14.97
2019-04-23T18:48:40.663Z,18.20
2019-04-23T18:50:59.826Z,13.83
2019-04-23T18:53:40.833Z,13.80
2019-04-23T18:58:47.497Z,16.63
2019-04-23T19:06:37.705Z,14.33
2019-04-23T19:15:09.523Z,13.33
2019-04-23T19:20:01.077Z,14.37
2019-04-23T19:22:51.589Z,15.80
2019-04-23T19:25:11.065Z,13.07
2019-04-23T19:27:38.628Z,13.10
2019-04-23T19:30:13.571Z,15.47
2019-04-23T19:32:49.222Z,12.77
2019-04-23T19:35:23.756Z,13.07
2019-04-23T19:37:55.914Z,14.10
2019-04-23T19:40:15.258Z,17.13
2019-04-23T19:42:50.764Z,12.77
2019-04-23T19:45:20.578Z,17.80
2019-04-23T19:48:03.417Z,14.07
2019-04-23T19:50:28.542Z,15.07
2019-04-23T19:55:24.120Z,13.90
2019-04-23T20:00:28.849Z,16.87
2019-04-23T20:03:12.508Z,17.33
2019-04-23T20:05:35.610Z,12.60
2019-04-23T20:08:04.406Z,17.63
2019-04-23T20:10:33.230Z,15.07
2019-04-23T20:12:59.153Z,15.03
2019-04-23T20:15:40.930Z,14.37
2019-04-23T20:18:22.306Z,12.30
2019-04-23T20:20:48.041Z,13.37
2019-04-23T20:23:36.244Z,14.87
2019-04-23T20:26:07.361Z,15.87
2019-04-23T20:28:31.129Z,18.13
2019-04-23T20:31:13.983Z,14.80
2019-04-23T20:36:46.557Z,17.27
2019-04-23T20:39:17.384Z,19.13
2019-04-23T20:47:06.790Z,15.30
2019-04-23T20:49:42.274Z,16.13
2019-04-23T20:52:04.782Z,14.37
2019-04-23T20:54:42.312Z,15.30
2019-04-23T20:57:31.805Z,16.47
2019-04-23T21:02:58.862Z,19.90
2019-04-23T21:07:52.604Z,14.70
2019-04-23T21:10:27.388Z,15.00
2019-04-23T21:12:57.906Z,15.43
2019-04-23T21:15:10.369Z,22.93
2019-04-23T21:20:16.131Z,13.10
2019-04-23T21:22:51.037Z,14.70
2019-04-23T21:25:09.453Z,14.27
2019-04-23T21:27:57.473Z,14.77
2019-04-23T21:30:55.379Z,16.90
2019-04-23T21:33:13.462Z,14.13
2019-04-23T21:36:18.936Z,12.23
2019-04-23T21:39:12.154Z,14.90
2019-04-23T21:46:47.929Z,11.27
2019-04-23T21:51:49.314Z,10.90
2019-04-23T21:54:06.170Z,14.87
2019-04-23T21:56:47.210Z,10.67
2019-04-23T22:04:41.499Z,9.07
2019-04-23T22:06:53.000Z,13.27
2019-04-23T22:09:26.914Z,10.33
2019-04-23T22:12:08.934Z,11.73
2019-04-23T22:14:26.854Z,14.83
2019-04-23T22:17:06.155Z,12.67
2019-04-23T22:19:44.891Z,10.93
2019-04-23T22:22:12.639Z,7.87
2019-04-23T22:24:25.529Z,10.83
2019-04-23T22:26:58.378Z,19.50
2019-04-23T22:29:44.648Z,9.17
2019-04-23T22:32:02.575Z,10.07
2019-04-23T22:34:42.817Z,11.43
2019-04-23T22:37:10.899Z,11.83
2019-04-23T22:42:35.847Z,12.93
2019-04-23T22:44:57.451Z,11.17
2019-04-23T22:47:06.069Z,10.87
2019-04-23T22:52:21.355Z,10.27
2019-04-23T22:57:44.633Z,11.67
2019-04-23T23:00:13.000Z,12.17
2019-04-23T23:03:09.786Z,9.73
2019-04-23T23:10:36.672Z,10.80
2019-04-23T23:13:15.067Z,9.93
2019-04-23T23:15:44.996Z,10.47
2019-04-23T23:18:14.660Z,12.10
2019-04-23T23:20:47.917Z,10.37
2019-04-23T23:23:22.686Z,9.33
2019-04-23T23:25:46.088Z,11.87
2019-04-23T23:28:20.059Z,12.27
2019-04-23T23:30:57.977Z,10.90
2019-04-23T23:33:35.930Z,11.37
2019-04-23T23:35:54.824Z,11.53
2019-04-23T23:38:25.791Z,10.37
2019-04-23T23:40:57.157Z,13.23
2019-04-23T23:43:27.167Z,9.73
2019-04-23T23:46:03.562Z,10.27
2019-04-23T23:48:23.442Z,9.73
2019-04-23T23:51:00.663Z,9.77
2019-04-23T23:53:32.907Z,10.13
2019-04-23T23:56:05.426Z,11.87
2019-04-23T23:58:43.795Z,11.30
